BRU1 WSSL-WSSL

Flight info

Callsign BRU1
Flight time 0h 17m
Altitude 1000
Route CCTS
Aircraft C172/L-V/N

Departure

Time 2026-04-27 10:22
Airport Seletar Airport (WSSL)

Arrival

Time 2026-04-27 10:40
Airport Seletar Airport (WSSL)
Time Latitude Longitude Altitude Speed Heading
2026-04-27 10:13 1.41379 103.86816 48 ft 0 kts 213°
2026-04-27 10:16 1.41374 103.86812 48 ft 4 kts 222°
2026-04-27 10:17 1.41366 103.86803 48 ft 0 kts 269°
2026-04-27 10:17 1.41368 103.86802 48 ft 1 kts 316°
2026-04-27 10:17 1.41392 103.86767 47 ft 6 kts 277°
2026-04-27 10:18 1.41357 103.86733 49 ft 11 kts 213°
2026-04-27 10:18 1.41267 103.86671 53 ft 14 kts 200°
2026-04-27 10:18 1.41202 103.86631 53 ft 9 kts 213°
2026-04-27 10:18 1.41145 103.86595 53 ft 10 kts 214°
2026-04-27 10:19 1.41080 103.86556 53 ft 11 kts 214°
2026-04-27 10:19 1.40991 103.86495 52 ft 16 kts 213°
2026-04-27 10:19 1.40904 103.86439 50 ft 16 kts 213°
2026-04-27 10:19 1.40815 103.86379 49 ft 12 kts 212°
2026-04-27 10:20 1.40803 103.86318 48 ft 9 kts 294°
2026-04-27 10:20 1.40847 103.86252 47 ft 11 kts 320°
2026-04-27 10:20 1.40910 103.86250 47 ft 9 kts 32°
2026-04-27 10:20 1.41087 103.86368 49 ft 54 kts 33°
2026-04-27 10:21 1.41413 103.86579 105 ft 72 kts 34°
2026-04-27 10:21 1.41526 103.86650 144 ft 73 kts 31°
2026-04-27 10:21 1.41636 103.86716 174 ft 75 kts 30°
2026-04-27 10:21 1.41919 103.86900 271 ft 77 kts 39°
2026-04-27 10:22 1.42036 103.86986 320 ft 77 kts 37°
2026-04-27 10:22 1.42500 103.87155 429 ft 85 kts 347°
2026-04-27 10:22 1.42893 103.86725 572 ft 89 kts 310°
2026-04-27 10:22 1.43239 103.86256 654 ft 79 kts 296°
2026-04-27 10:23 1.43066 103.85787 667 ft 83 kts 209°
2026-04-27 10:23 1.42560 103.85481 741 ft 86 kts 206°
2026-04-27 10:23 1.42012 103.85214 892 ft 89 kts 201°
2026-04-27 10:23 1.41459 103.84898 964 ft 93 kts 210°
2026-04-27 10:24 1.40905 103.84538 943 ft 94 kts 213°
2026-04-27 10:24 1.40342 103.84232 870 ft 87 kts 190°
2026-04-27 10:24 1.39873 103.84444 739 ft 74 kts 114°
2026-04-27 10:24 1.39605 103.84853 614 ft 69 kts 120°
2026-04-27 10:25 1.39672 103.85274 494 ft 66 kts 56°
2026-04-27 10:25 1.39994 103.85632 409 ft 69 kts 35°
2026-04-27 10:25 1.40377 103.85877 369 ft 71 kts 32°
2026-04-27 10:25 1.40846 103.86194 392 ft 89 kts 34°
2026-04-27 10:26 1.41384 103.86553 490 ft 94 kts 33°
2026-04-27 10:26 1.41586 103.86678 541 ft 94 kts 32°
2026-04-27 10:26 1.41727 103.86764 563 ft 93 kts 30°
2026-04-27 10:26 1.42307 103.87035 704 ft 93 kts
2026-04-27 10:27 1.42852 103.86640 722 ft 108 kts 304°
2026-04-27 10:27 1.43148 103.85957 771 ft 104 kts 284°
2026-04-27 10:27 1.42882 103.85365 790 ft 100 kts 210°
2026-04-27 10:27 1.42733 103.85272 767 ft 102 kts 210°
2026-04-27 10:28 1.42338 103.85036 735 ft 104 kts 210°
2026-04-27 10:28 1.41731 103.84678 791 ft 97 kts 209°
2026-04-27 10:28 1.41152 103.84332 816 ft 98 kts 209°
2026-04-27 10:28 1.40543 103.84048 804 ft 93 kts 181°
2026-04-27 10:29 1.40057 103.84386 652 ft 90 kts 118°
2026-04-27 10:29 1.39730 103.84918 512 ft 90 kts 123°
2026-04-27 10:29 1.39701 103.85436 439 ft 79 kts 43°
2026-04-27 10:29 1.40108 103.85716 376 ft 66 kts 37°
2026-04-27 10:30 1.40505 103.85980 225 ft 68 kts 35°
2026-04-27 10:30 1.40885 103.86233 96 ft 63 kts 34°
2026-04-27 10:30 1.41231 103.86461 51 ft 51 kts 33°
2026-04-27 10:30 1.41601 103.86702 122 ft 65 kts 35°
2026-04-27 10:31 1.41717 103.86781 166 ft 65 kts 35°
2026-04-27 10:31 1.42095 103.87023 291 ft 65 kts 34°
2026-04-27 10:31 1.42481 103.87266 437 ft 62 kts 14°
2026-04-27 10:31 1.42798 103.87004 507 ft 73 kts 302°
2026-04-27 10:32 1.42970 103.86711 628 ft 66 kts 304°
2026-04-27 10:32 1.43204 103.86302 742 ft 69 kts 301°
2026-04-27 10:32 1.43149 103.85833 812 ft 78 kts 224°
2026-04-27 10:32 1.42667 103.85532 873 ft 82 kts 212°
2026-04-27 10:33 1.42194 103.85201 960 ft 82 kts 217°
2026-04-27 10:33 1.41694 103.84885 1008 ft 87 kts 211°
2026-04-27 10:33 1.41156 103.84577 1014 ft 89 kts 209°
2026-04-27 10:33 1.40611 103.84311 958 ft 79 kts 193°
2026-04-27 10:34 1.40138 103.84437 762 ft 70 kts 138°
2026-04-27 10:34 1.39882 103.84825 579 ft 64 kts 127°
2026-04-27 10:34 1.39688 103.85224 422 ft 65 kts 74°
2026-04-27 10:34 1.39964 103.85586 306 ft 65 kts 44°
2026-04-27 10:35 1.40320 103.85854 222 ft 65 kts 36°
2026-04-27 10:35 1.40704 103.86114 132 ft 67 kts 37°
2026-04-27 10:35 1.41096 103.86372 54 ft 66 kts 36°
2026-04-27 10:35 1.41456 103.86607 49 ft 70 kts 33°
2026-04-27 10:36 1.41870 103.86880 163 ft 73 kts 33°
2026-04-27 10:36 1.42280 103.87135 347 ft 65 kts 29°
2026-04-27 10:36 1.42693 103.87079 440 ft 73 kts 309°
2026-04-27 10:36 1.42977 103.86612 515 ft 82 kts 306°
2026-04-27 10:37 1.43269 103.86104 598 ft 91 kts 284°
2026-04-27 10:37 1.43004 103.85553 703 ft 94 kts 212°
2026-04-27 10:37 1.42411 103.85217 787 ft 97 kts 210°
2026-04-27 10:37 1.41816 103.84862 875 ft 99 kts 214°
2026-04-27 10:38 1.41258 103.84461 916 ft 102 kts 217°
2026-04-27 10:38 1.40601 103.84190 906 ft 100 kts 177°
2026-04-27 10:38 1.40036 103.84486 703 ft 91 kts 121°
2026-04-27 10:38 1.39677 103.84995 543 ft 85 kts 129°
2026-04-27 10:39 1.39710 103.85486 387 ft 78 kts 39°
2026-04-27 10:39 1.40164 103.85757 302 ft 75 kts 35°
2026-04-27 10:39 1.40605 103.86054 197 ft 74 kts 32°
2026-04-27 10:39 1.41033 103.86330 65 ft 68 kts 37°
2026-04-27 10:40 1.41340 103.86533 49 ft 31 kts 31°
2026-04-27 10:40 1.41474 103.86620 47 ft 18 kts 32°
2026-04-27 10:40 1.41543 103.86683 45 ft 9 kts 74°
2026-04-27 10:40 1.41531 103.86724 45 ft 3 kts 123°
2026-04-27 10:41 1.41525 103.86732 45 ft 4 kts 121°
2026-04-27 10:41 1.41491 103.86789 46 ft 7 kts 132°
2026-04-27 10:41 1.41469 103.86799 46 ft 2 kts 175°
2026-04-27 10:41 1.41440 103.86785 46 ft 5 kts 218°
2026-04-27 10:42 1.41427 103.86779 47 ft 0 kts 156°
2026-04-27 10:42 1.41416 103.86803 47 ft 6 kts 125°
2026-04-27 10:42 1.41399 103.86826 47 ft 0 kts 168°
2026-04-27 10:42 1.41392 103.86825 47 ft 5 kts 205°
2026-04-27 10:43 1.41382 103.86818 48 ft 0 kts 213°